Time;durP1;ratioP1;P1;durP2;ratioP2;P2;SDS_P1;SDS_P2;PMS_P1;PMS_P2;Temp;Humidity;BMP_temperature;BMP_pressure;BME280_temperature;BME280_humidity;BME280_pressure;Samples;Min_cycle;Max_cycle;Signal;HPM_P1;HPM_P2
2023/07/19 00:01:09;;;;;;;12.65;5.75;;;;;;;25.61;55.39;101171.00;5034539;28;20025;-91
2023/07/19 00:03:35;;;;;;;9.68;6.07;;;;;;;25.59;55.59;101175.66;5033888;28;20037;-92
2023/07/19 00:06:01;;;;;;;15.00;6.18;;;;;;;25.60;55.69;101176.47;5050256;28;20029;-91
2023/07/19 00:08:26;;;;;;;17.23;6.57;;;;;;;25.58;55.84;101178.47;5033786;28;20082;-91
2023/07/19 00:10:52;;;;;;;19.23;6.40;;;;;;;25.47;55.83;101168.97;5033622;28;20028;-89
2023/07/19 00:13:17;;;;;;;11.23;6.05;;;;;;;25.48;56.09;101167.16;5033748;28;20021;-91
2023/07/19 00:15:42;;;;;;;15.23;6.30;;;;;;;25.53;56.23;101181.56;5050319;28;20032;-90
2023/07/19 00:18:08;;;;;;;12.48;6.22;;;;;;;25.51;56.40;101188.03;5033488;28;20033;-90
2023/07/19 00:20:33;;;;;;;16.13;6.72;;;;;;;25.48;56.33;101183.06;5033534;28;20040;-90
2023/07/19 00:22:59;;;;;;;12.30;7.15;;;;;;;25.46;56.63;101175.22;5016939;28;20032;-90
2023/07/19 00:25:24;;;;;;;13.57;6.15;;;;;;;25.38;56.02;101161.97;5016871;28;20029;-90
2023/07/19 00:27:50;;;;;;;14.90;6.43;;;;;;;25.44;56.31;101169.28;5016880;28;20486;-90
2023/07/19 00:30:16;;;;;;;11.50;5.97;;;;;;;25.60;55.97;101176.47;5033593;28;20029;-91
2023/07/19 00:32:41;;;;;;;11.60;6.20;;;;;;;25.52;55.91;101168.47;5033021;28;20056;-91
2023/07/19 00:35:07;;;;;;;15.65;6.43;;;;;;;25.52;55.98;101168.47;5033395;28;20036;-92
2023/07/19 00:37:32;;;;;;;15.38;6.45;;;;;;;25.27;56.13;101144.53;5033147;28;20079;-91
2023/07/19 00:39:58;;;;;;;10.93;5.80;;;;;;;25.51;56.35;101164.19;5049731;28;20037;-90
2023/07/19 00:42:24;;;;;;;20.67;6.18;;;;;;;25.49;56.28;101158.22;5049510;28;20057;-90
2023/07/19 00:44:49;;;;;;;13.70;7.15;;;;;;;25.59;55.93;101161.56;5016800;28;20032;-90
2023/07/19 00:47:15;;;;;;;13.98;6.35;;;;;;;25.52;55.97;101158.72;5032930;28;20036;-90
2023/07/19 00:49:42;;;;;;;13.48;6.40;;;;;;;25.56;56.07;101159.22;5049962;28;20032;-89
2023/07/19 00:52:07;;;;;;;12.32;6.18;;;;;;;25.51;56.16;101166.81;5033123;28;20033;-89
2023/07/19 00:54:33;;;;;;;16.95;6.35;;;;;;;25.52;55.92;101165.84;5033083;28;20455;-90
2023/07/19 00:56:58;;;;;;;16.70;6.07;;;;;;;25.37;55.54;101139.13;5032952;28;20029;-90
2023/07/19 00:59:24;;;;;;;13.75;5.43;;;;;;;25.38;55.94;101152.22;5016607;28;20029;-90
2023/07/19 01:01:49;;;;;;;10.60;6.57;;;;;;;25.40;55.90;101154.69;5032569;28;20021;-90
2023/07/19 01:04:15;;;;;;;10.77;5.75;;;;;;;25.26;57.12;101150.81;5033191;28;20033;-90
2023/07/19 01:06:42;;;;;;;12.48;6.80;;;;;;;25.39;56.57;101145.91;5032733;28;20029;-90
2023/07/19 01:09:07;;;;;;;15.25;8.57;;;;;;;25.37;56.62;101134.66;5016521;28;20029;-89
2023/07/19 01:11:33;;;;;;;14.82;7.47;;;;;;;25.28;56.27;101117.06;5032822;28;20029;-90
2023/07/19 01:13:58;;;;;;;11.10;6.25;;;;;;;25.41;56.05;101125.41;5049267;28;20041;-92
2023/07/19 01:16:23;;;;;;;10.07;5.90;;;;;;;25.42;56.11;101127.06;5049171;28;20471;-88
2023/07/19 01:18:49;;;;;;;15.65;5.68;;;;;;;25.38;55.81;101115.13;5032828;28;20029;-92
2023/07/19 01:21:15;;;;;;;9.43;5.50;;;;;;;25.26;55.84;101107.59;5032455;28;20025;-90
2023/07/19 01:23:40;;;;;;;16.05;6.18;;;;;;;25.26;55.85;101110.25;5049005;28;20033;-89
2023/07/19 01:26:06;;;;;;;11.07;5.63;;;;;;;25.27;55.83;101115.41;5016297;28;20078;-90
2023/07/19 01:28:31;;;;;;;10.00;5.68;;;;;;;25.27;56.08;101115.41;5049134;28;20585;-89
2023/07/19 01:30:56;;;;;;;10.60;6.35;;;;;;;25.36;56.26;101116.25;5015768;28;20029;-90
2023/07/19 01:33:22;;;;;;;10.57;5.80;;;;;;;25.32;56.18;101105.16;5016087;28;20045;-91
2023/07/19 01:35:47;;;;;;;12.18;5.88;;;;;;;25.25;56.18;101106.78;5049153;28;20026;-89
2023/07/19 01:38:13;;;;;;;10.68;5.63;;;;;;;25.30;55.98;101116.91;5032356;28;20407;-89
2023/07/19 01:40:38;;;;;;;9.93;5.18;;;;;;;25.27;56.05;101107.47;5049211;28;20029;-89
2023/07/19 01:43:04;;;;;;;11.52;5.80;;;;;;;25.31;56.08;101114.09;5049125;28;20037;-90
2023/07/19 01:45:29;;;;;;;10.27;6.00;;;;;;;25.39;56.28;101129.19;5032205;28;20025;-90
2023/07/19 01:47:54;;;;;;;11.60;5.50;;;;;;;25.43;55.73;101126.06;5015989;28;20040;-89
2023/07/19 01:50:20;;;;;;;10.30;4.78;;;;;;;25.48;55.81;101127.41;5016003;28;20505;-89
2023/07/19 01:52:45;;;;;;;10.15;4.97;;;;;;;25.42;55.44;101108.50;5049106;28;20036;-90
2023/07/19 01:55:11;;;;;;;9.55;5.60;;;;;;;25.42;55.46;101121.75;5033726;28;20083;-90
2023/07/19 01:57:37;;;;;;;8.75;4.95;;;;;;;25.31;55.77;101113.28;5052390;28;20025;-90
2023/07/19 02:00:03;;;;;;;9.70;4.93;;;;;;;25.29;55.87;101113.44;5052385;28;20521;-91
2023/07/19 02:02:29;;;;;;;7.97;4.97;;;;;;;25.37;55.78;101116.13;5036169;28;20026;-90
2023/07/19 02:04:54;;;;;;;8.23;4.85;;;;;;;25.36;55.46;101103.84;5035959;28;20056;-91
2023/07/19 02:07:20;;;;;;;8.27;4.65;;;;;;;25.34;55.65;101103.19;5035786;28;20029;-89
2023/07/19 02:09:46;;;;;;;8.32;4.55;;;;;;;25.39;55.48;101106.19;5019190;28;20036;-91
2023/07/19 02:12:11;;;;;;;8.80;4.78;;;;;;;25.36;55.83;101101.19;5036170;28;20052;-90
2023/07/19 02:14:37;;;;;;;8.63;5.00;;;;;;;25.35;55.95;101104.84;5035464;28;20029;-89
2023/07/19 02:17:02;;;;;;;10.38;4.97;;;;;;;25.28;55.94;101092.41;5035778;28;20505;-91
2023/07/19 02:19:28;;;;;;;13.00;4.75;;;;;;;25.30;55.71;101083.31;5019155;28;20024;-91
2023/07/19 02:21:53;;;;;;;8.20;4.82;;;;;;;25.08;56.00;101079.41;5052222;28;20036;-90
2023/07/19 02:24:19;;;;;;;8.18;4.65;;;;;;;24.97;56.28;101076.16;5035934;28;20025;-90
2023/07/19 02:26:44;;;;;;;9.10;4.68;;;;;;;24.83;56.58;101057.25;5035279;28;20037;-91
2023/07/19 02:29:10;;;;;;;8.93;4.72;;;;;;;24.89;56.60;101072.50;5051844;28;20497;-92
2023/07/19 02:31:35;;;;;;;7.22;4.25;;;;;;;25.03;56.59;101072.94;5018713;28;20057;-91
2023/07/19 02:34:01;;;;;;;8.73;4.82;;;;;;;24.98;56.23;101067.25;5051859;28;20029;-89
2023/07/19 02:36:27;;;;;;;9.77;5.07;;;;;;;25.11;56.57;101078.25;5051688;28;20056;-90
2023/07/19 02:38:52;;;;;;;7.78;4.47;;;;;;;25.05;56.74;101073.59;5051913;28;20039;-89
2023/07/19 02:41:18;;;;;;;8.40;4.35;;;;;;;25.04;56.54;101064.81;5035392;28;20044;-89
2023/07/19 02:43:43;;;;;;;8.48;4.43;;;;;;;24.96;56.56;101050.69;5034952;28;20025;-90
2023/07/19 02:46:09;;;;;;;8.20;4.53;;;;;;;24.95;56.58;101064.91;5018498;28;20053;-91
2023/07/19 02:48:35;;;;;;;9.82;5.35;;;;;;;24.91;57.26;101069.69;5051611;28;20025;-90
2023/07/19 02:51:00;;;;;;;8.00;4.95;;;;;;;24.97;57.32;101076.16;5051587;28;20761;-89
2023/07/19 02:53:26;;;;;;;8.45;5.63;;;;;;;24.98;57.23;101069.91;5019193;28;20407;-91
2023/07/19 02:55:52;;;;;;;7.78;4.88;;;;;;;24.93;56.95;101070.38;5052274;28;20036;-92
2023/07/19 02:58:17;;;;;;;8.75;4.88;;;;;;;24.91;56.82;101074.16;5035067;28;20025;-91
2023/07/19 03:00:43;;;;;;;11.73;5.03;;;;;;;24.85;56.99;101071.13;5035137;28;20486;-92
2023/07/19 03:03:09;;;;;;;6.93;4.47;;;;;;;24.88;57.27;101072.66;5035559;28;20021;-90
2023/07/19 03:05:39;;;;;;;7.75;4.15;;;;;;;24.88;56.99;101078.78;5018425;28;20213;-92
2023/07/19 03:08:14;;;;;;;9.43;4.85;;;;;;;24.96;56.74;101077.16;5035941;28;20064;-91
2023/07/19 03:10:39;;;;;;;13.10;5.20;;;;;;;24.92;56.82;101079.28;5051593;28;20031;-93
2023/07/19 03:13:05;;;;;;;6.65;4.75;;;;;;;24.80;57.17;101073.44;5035035;28;20032;-91
2023/07/19 03:15:32;;;;;;;11.82;5.18;;;;;;;24.75;57.33;101067.78;5035377;28;20490;-92
2023/07/19 03:18:04;;;;;;;8.93;5.18;;;;;;;24.81;57.54;101064.53;5035286;28;20039;-94
2023/07/19 03:20:30;;;;;;;10.35;4.68;;;;;;;24.74;57.90;101052.88;5035609;28;20406;-92
2023/07/19 03:22:55;;;;;;;14.95;5.22;;;;;;;24.83;57.57;101051.13;5034669;28;20037;-92
2023/07/19 03:25:22;;;;;;;7.47;4.43;;;;;;;24.77;58.62;101049.94;5034209;28;20306;-92
2023/07/19 03:27:47;;;;;;;7.63;4.45;;;;;;;24.77;59.63;101047.28;5034508;28;20437;-91
2023/07/19 03:30:14;;;;;;;9.68;5.28;;;;;;;24.87;59.53;101042.69;5034946;28;20083;-91
2023/07/19 03:32:39;;;;;;;7.85;4.70;;;;;;;24.98;62.23;101038.97;5034816;28;20043;-93
2023/07/19 03:35:05;;;;;;;8.93;5.22;;;;;;;25.01;62.87;101027.22;5034718;28;20029;-91
2023/07/19 03:37:31;;;;;;;10.57;5.70;;;;;;;24.91;63.30;101013.28;5035203;28;20139;-93
2023/07/19 03:39:56;;;;;;;8.32;5.05;;;;;;;24.79;63.44;100996.88;5050999;28;20479;-92
2023/07/19 03:42:21;;;;;;;11.35;5.55;;;;;;;24.93;62.96;101019.25;5050735;28;20104;-92
2023/07/19 03:44:47;;;;;;;7.97;5.50;;;;;;;25.02;59.67;101015.69;5018124;28;20486;-90
2023/07/19 03:47:12;;;;;;;13.02;5.95;;;;;;;25.02;59.20;101020.97;5016250;28;20076;-92
2023/07/19 03:49:38;;;;;;;8.40;4.97;;;;;;;25.01;58.63;101025.41;5014974;28;20033;-95
2023/07/19 03:52:04;;;;;;;16.25;5.13;;;;;;;24.97;58.49;101013.47;5015064;28;20030;-92
2023/07/19 03:54:29;;;;;;;8.30;5.32;;;;;;;24.93;58.53;101025.38;4998437;28;20037;-93
2023/07/19 03:56:55;;;;;;;10.93;5.38;;;;;;;24.84;58.07;101005.97;5014678;28;20033;-92
2023/07/19 03:59:20;;;;;;;9.40;5.82;;;;;;;24.93;58.39;101025.38;5013818;28;20044;-88
2023/07/19 04:01:46;;;;;;;10.63;5.18;;;;;;;24.95;58.36;101033.16;5015046;28;20037;-88
2023/07/19 04:04:11;;;;;;;9.82;5.50;;;;;;;24.86;58.14;100996.06;5014834;28;20063;-88
2023/07/19 04:06:39;;;;;;;11.05;4.65;;;;;;;25.08;58.36;101029.13;5032024;28;20037;-88
2023/07/19 04:09:04;;;;;;;8.35;4.75;;;;;;;25.02;58.57;101023.63;5014126;28;20024;-89
2023/07/19 04:11:30;;;;;;;9.27;5.55;;;;;;;24.99;58.71;101031.88;5014007;28;20033;-88
2023/07/19 04:13:55;;;;;;;10.02;5.40;;;;;;;25.02;58.71;101045.63;5014140;28;20029;-88
2023/07/19 04:16:21;;;;;;;14.02;5.70;;;;;;;24.97;59.07;101039.09;5035333;28;20033;-88
2023/07/19 04:18:46;;;;;;;16.85;6.97;;;;;;;24.91;60.40;101034.47;5033110;28;20024;-87
2023/07/19 04:21:12;;;;;;;18.95;7.15;;;;;;;24.51;61.55;101026.16;5035989;28;20091;-86
2023/07/19 04:23:37;;;;;;;18.70;7.65;;;;;;;24.08;63.65;101008.44;5029549;28;20025;-87
2023/07/19 04:26:05;;;;;;;12.95;6.65;;;;;;;23.88;64.72;101021.00;5046450;28;20464;-88
2023/07/19 04:28:30;;;;;;;12.10;6.63;;;;;;;23.75;64.95;101026.66;5049728;28;20028;-87
2023/07/19 04:30:56;;;;;;;10.10;6.10;;;;;;;23.71;65.46;101032.41;5040696;28;20106;-92
2023/07/19 04:33:22;;;;;;;8.95;5.97;;;;;;;23.77;65.60;101045.00;5031008;28;20048;-92
2023/07/19 04:35:47;;;;;;;14.23;5.90;;;;;;;23.80;65.26;101039.44;5022484;28;20029;-93
2023/07/19 04:38:15;;;;;;;10.35;4.90;;;;;;;23.98;65.04;101052.63;5017188;28;20049;-93
2023/07/19 04:40:40;;;;;;;8.63;5.25;;;;;;;24.14;63.96;101055.41;5050447;28;20029;-85
2023/07/19 04:43:06;;;;;;;13.63;6.30;;;;;;;24.29;63.00;101056.53;5049119;28;20418;-92
2023/07/19 04:45:31;;;;;;;9.60;5.82;;;;;;;24.47;64.70;101059.16;5022287;28;20079;-92
2023/07/19 04:47:57;;;;;;;17.20;6.22;;;;;;;24.58;67.04;101058.06;5048912;28;20025;-89
2023/07/19 04:50:24;;;;;;;12.85;7.20;;;;;;;24.68;67.28;101060.63;5018482;28;20083;-89
2023/07/19 04:52:50;;;;;;;15.77;6.97;;;;;;;24.78;66.34;101064.00;5012477;28;20491;-86
2023/07/19 04:55:16;;;;;;;12.23;7.38;;;;;;;24.91;65.45;101053.00;5013037;28;20037;-85
2023/07/19 04:57:41;;;;;;;17.90;7.07;;;;;;;24.95;64.85;101054.31;5029369;28;20025;-87
2023/07/19 05:00:11;;;;;;;12.05;7.00;;;;;;;25.05;64.87;101047.94;5012438;28;20029;-88
2023/07/19 05:02:38;;;;;;;15.60;7.10;;;;;;;25.05;64.06;101055.06;5028900;28;20026;-86
2023/07/19 05:05:04;;;;;;;14.93;7.15;;;;;;;25.00;62.77;101042.28;5018519;28;20040;-89
2023/07/19 05:07:33;;;;;;;11.05;6.75;;;;;;;25.04;62.55;101051.59;5031796;28;20025;-86
2023/07/19 05:10:03;;;;;;;11.80;6.97;;;;;;;24.94;62.70;101044.72;5029829;28;20129;-93
2023/07/19 05:12:29;;;;;;;11.68;7.18;;;;;;;24.82;63.27;101039.72;5029319;28;20124;-87
2023/07/19 05:14:55;;;;;;;16.75;7.30;;;;;;;24.95;61.47;101035.78;5029309;28;20099;-87
2023/07/19 05:17:21;;;;;;;18.08;7.03;;;;;;;24.77;62.35;101049.94;5029484;28;20025;-92
2023/07/19 05:19:46;;;;;;;10.73;5.82;;;;;;;25.07;61.35;101047.78;4998933;28;20037;-89
2023/07/19 05:22:12;;;;;;;14.70;6.60;;;;;;;25.09;61.08;101041.38;5048349;28;20102;-88
2023/07/19 05:24:37;;;;;;;12.80;6.28;;;;;;;25.04;60.95;101026.94;5027452;28;20029;-87
2023/07/19 05:27:03;;;;;;;12.13;6.00;;;;;;;25.13;61.23;101036.56;5016335;28;20063;-89
2023/07/19 05:29:28;;;;;;;12.60;6.22;;;;;;;25.10;62.50;101037.72;5020790;28;20029;-90
2023/07/19 05:31:55;;;;;;;9.55;6.28;;;;;;;25.17;61.88;101041.41;5035269;28;20537;-87
2023/07/19 05:34:22;;;;;;;11.65;6.18;;;;;;;25.07;63.00;101029.25;5045566;28;20037;-88
2023/07/19 05:36:47;;;;;;;11.25;6.03;;;;;;;25.04;63.46;101048.94;5031868;28;20506;-89
2023/07/19 05:39:13;;;;;;;9.88;6.55;;;;;;;25.17;63.04;101038.75;5036190;28;20486;-90
2023/07/19 05:41:39;;;;;;;11.15;6.90;;;;;;;25.23;62.63;101053.16;5036796;28;20445;-93
2023/07/19 05:44:04;;;;;;;11.68;6.25;;;;;;;25.40;62.08;101049.59;5020691;28;20098;-88
2023/07/19 05:46:30;;;;;;;9.88;6.07;;;;;;;25.60;58.17;101044.00;5040757;28;20029;-93
2023/07/19 05:48:56;;;;;;;11.80;5.20;;;;;;;25.52;57.43;101036.03;5015981;28;20033;-89
2023/07/19 05:51:21;;;;;;;8.95;5.53;;;;;;;25.88;59.39;101047.22;5042712;28;20033;-88
2023/07/19 05:53:47;;;;;;;11.00;5.88;;;;;;;26.00;57.32;101043.25;5019060;28;20045;-83
2023/07/19 05:56:12;;;;;;;7.75;5.47;;;;;;;26.20;58.03;101046.41;5051962;28;20032;-91
2023/07/19 05:58:38;;;;;;;9.60;6.25;;;;;;;26.24;56.92;101013.25;5019383;28;20033;-84
2023/07/19 06:01:07;;;;;;;8.02;5.90;;;;;;;26.20;58.67;101019.88;5041657;28;20026;-89
2023/07/19 06:03:33;;;;;;;13.27;6.65;;;;;;;26.38;59.01;101023.22;5016472;28;20072;-90
2023/07/19 06:05:58;;;;;;;14.32;7.05;;;;;;;26.47;58.36;101022.19;5019457;28;20403;-90
2023/07/19 06:08:23;;;;;;;24.95;8.15;;;;;;;26.14;57.97;101010.75;5033738;28;20095;-92
2023/07/19 06:10:50;;;;;;;11.43;6.72;;;;;;;26.44;58.27;101022.53;5034603;28;20083;-89
2023/07/19 06:13:15;;;;;;;9.02;5.75;;;;;;;26.33;56.78;101012.22;5015642;28;20025;-84
2023/07/19 06:15:40;;;;;;;13.15;7.18;;;;;;;26.37;59.22;101015.41;5031745;28;20033;-86
2023/07/19 06:18:06;;;;;;;13.10;7.80;;;;;;;26.55;58.44;101019.53;5019562;28;20040;-88
2023/07/19 06:20:32;;;;;;;15.82;7.53;;;;;;;26.47;58.91;101008.94;5024616;28;20029;-86
2023/07/19 06:22:57;;;;;;;13.85;7.25;;;;;;;26.70;58.44;100998.41;5036203;28;20525;-88
2023/07/19 06:25:23;;;;;;;22.50;9.57;;;;;;;26.82;59.21;101010.31;5051144;28;20053;-92
2023/07/19 06:27:48;;;;;;;13.02;7.97;;;;;;;26.89;58.46;101010.47;5032815;28;20030;-88
2023/07/19 06:30:13;;;;;;;13.95;8.48;;;;;;;26.99;57.87;100999.63;5016334;28;20046;-91
2023/07/19 06:32:39;;;;;;;14.50;8.10;;;;;;;26.89;57.79;101005.16;5014549;28;20526;-91
2023/07/19 06:35:05;;;;;;;19.27;8.30;;;;;;;27.09;57.14;101010.91;5019180;28;20037;-84
2023/07/19 06:37:33;;;;;;;13.25;7.15;;;;;;;27.11;55.47;101012.38;5015222;28;20029;-89
2023/07/19 06:40:02;;;;;;;14.85;6.18;;;;;;;27.35;53.23;101010.63;5002034;28;20029;-89
2023/07/19 06:42:28;;;;;;;9.70;5.60;;;;;;;27.69;51.39;101028.84;5015533;28;20033;-87
2023/07/19 06:44:53;;;;;;;11.35;5.40;;;;;;;27.75;51.31;101019.34;5015372;28;20399;-87
2023/07/19 06:47:19;;;;;;;7.60;5.13;;;;;;;28.01;51.16;101011.81;5047274;28;20029;-89
2023/07/19 06:49:44;;;;;;;10.82;6.60;;;;;;;27.95;51.33;101016.03;5018847;28;20033;-86
2023/07/19 06:52:13;;;;;;;9.45;5.72;;;;;;;28.15;50.95;101018.19;5053744;28;20032;-94
2023/07/19 06:54:39;;;;;;;11.88;6.05;;;;;;;28.30;50.96;101019.06;5016191;28;20041;-90
2023/07/19 06:57:05;;;;;;;8.85;6.20;;;;;;;28.27;50.78;101011.41;5023049;28;20037;-89
2023/07/19 06:59:31;;;;;;;8.35;6.13;;;;;;;28.58;50.81;101017.44;5031691;28;20535;-87
2023/07/19 07:01:56;;;;;;;9.63;6.43;;;;;;;28.65;48.91;100988.25;5032615;28;20109;-91
2023/07/19 07:04:22;;;;;;;15.55;6.65;;;;;;;28.62;49.65;100977.16;5018002;28;20025;-87
2023/07/19 07:06:47;;;;;;;9.30;6.07;;;;;;;28.85;49.08;100993.84;5022458;28;20041;-91
2023/07/19 07:09:14;;;;;;;13.70;7.22;;;;;;;28.99;48.44;100990.34;5032736;28;20029;-88
2023/07/19 07:11:40;;;;;;;13.10;9.00;;;;;;;29.10;48.05;100975.72;5023733;28;20029;-90
2023/07/19 07:14:05;;;;;;;10.52;5.95;;;;;;;29.27;46.47;100979.81;5034217;28;20521;-87
2023/07/19 07:16:31;;;;;;;9.95;6.28;;;;;;;29.27;46.71;100971.00;5028484;28;20041;-90
2023/07/19 07:18:56;;;;;;;10.07;6.80;;;;;;;29.48;47.55;100978.19;5015533;28;20021;-88
2023/07/19 07:21:22;;;;;;;13.02;7.32;;;;;;;29.46;49.02;100980.22;5015190;28;20033;-89
2023/07/19 07:23:47;;;;;;;11.38;6.63;;;;;;;29.66;47.97;100975.94;5001433;28;20045;-88
2023/07/19 07:26:14;;;;;;;15.00;7.38;;;;;;;29.74;47.26;100986.47;5050295;28;20478;-87
2023/07/19 07:28:40;;;;;;;12.23;6.82;;;;;;;29.81;46.35;100979.34;5052214;28;20520;-93
2023/07/19 07:31:09;;;;;;;11.02;7.38;;;;;;;29.98;46.01;100978.03;5050155;28;20033;-93
2023/07/19 07:33:35;;;;;;;34.40;8.65;;;;;;;29.99;45.72;100970.88;5034310;28;20049;-90
2023/07/19 07:36:01;;;;;;;8.98;6.20;;;;;;;30.03;45.06;100941.97;5051245;28;20028;-90
2023/07/19 07:38:27;;;;;;;14.70;10.95;;;;;;;30.39;44.60;100980.03;5052338;28;20033;-88
2023/07/19 07:40:58;;;;;;;11.77;7.00;;;;;;;30.51;44.31;100983.78;5026184;28;20029;-89
2023/07/19 07:43:24;;;;;;;8.93;6.63;;;;;;;30.65;43.51;100981.19;5031872;28;20037;-93
2023/07/19 07:45:49;;;;;;;12.77;7.28;;;;;;;30.52;44.34;100973.91;4998535;28;20418;-89
2023/07/19 07:48:14;;;;;;;11.93;6.65;;;;;;;30.65;43.44;100949.97;5029294;28;20033;-89
2023/07/19 07:50:40;;;;;;;15.88;7.03;;;;;;;30.86;42.75;100967.72;5039387;28;20438;-92
2023/07/19 07:53:05;;;;;;;21.95;7.60;;;;;;;30.92;43.10;100968.78;5050541;28;20036;-88
2023/07/19 07:55:32;;;;;;;25.65;8.05;;;;;;;30.87;42.60;100941.84;5052639;28;20032;-92
2023/07/19 07:57:58;;;;;;;14.13;6.97;;;;;;;30.94;42.32;100962.22;5018138;28;20097;-91
2023/07/19 08:00:24;;;;;;;12.43;6.93;;;;;;;31.12;42.19;100949.13;4997298;28;20080;-89
2023/07/19 08:02:50;;;;;;;24.42;8.57;;;;;;;31.30;41.50;100945.91;5044328;28;20029;-91
2023/07/19 08:05:15;;;;;;;13.75;6.90;;;;;;;31.56;41.43;100963.84;5033605;28;20036;-88
2023/07/19 08:07:41;;;;;;;13.10;6.78;;;;;;;31.79;41.02;100963.47;5049998;28;20494;-92
2023/07/19 08:10:07;;;;;;;10.77;6.40;;;;;;;31.74;40.75;100970.41;5032924;28;20414;-92
2023/07/19 08:15:00;;;;;;;11.43;7.38;;;;;;;31.75;40.16;100950.66;5127239;23;20074;-93
2023/07/19 08:17:26;;;;;;;11.57;6.80;;;;;;;31.85;40.73;100948.41;5047673;28;20036;-89
2023/07/19 08:19:52;;;;;;;14.75;6.68;;;;;;;32.17;40.24;100960.97;5071513;28;20036;-90
2023/07/19 08:22:24;;;;;;;9.18;6.28;;;;;;;32.14;38.81;100947.97;5023663;28;20075;-93
2023/07/19 08:24:50;;;;;;;10.98;6.47;;;;;;;32.45;39.32;100965.25;5025058;28;20121;-90
2023/07/19 08:27:15;;;;;;;12.65;7.30;;;;;;;32.51;38.50;100935.75;5048898;28;20028;-86
2023/07/19 08:29:41;;;;;;;10.25;6.50;;;;;;;32.71;38.52;100962.47;5092846;28;20477;-91
2023/07/19 08:32:07;;;;;;;24.25;7.20;;;;;;;32.91;38.74;100966.94;5068645;28;20029;-91
2023/07/19 08:34:32;;;;;;;14.93;7.03;;;;;;;32.81;38.72;100952.13;5061287;28;20051;-90
2023/07/19 08:36:58;;;;;;;10.25;6.93;;;;;;;33.03;38.24;100951.81;5069309;28;20024;-89
2023/07/19 08:39:23;;;;;;;10.32;6.70;;;;;;;33.23;37.79;100952.53;5055774;28;20038;-88
2023/07/19 08:41:48;;;;;;;10.45;6.78;;;;;;;33.36;37.58;100939.09;5055965;28;20512;-91
2023/07/19 08:44:18;;;;;;;13.52;6.93;;;;;;;33.46;36.84;100948.50;5093805;28;20028;-93
2023/07/19 08:46:43;;;;;;;11.45;7.00;;;;;;;33.57;36.45;100937.06;5055595;28;20086;-91
2023/07/19 08:49:08;;;;;;;9.32;6.72;;;;;;;33.64;36.50;100929.78;5067081;28;20028;-87
2023/07/19 08:51:34;;;;;;;13.88;6.95;;;;;;;33.76;36.84;100935.25;5069009;28;20031;-87
2023/07/19 08:53:59;;;;;;;11.15;6.97;;;;;;;33.74;36.51;100914.03;5056880;28;20028;-93
2023/07/19 08:56:25;;;;;;;13.68;7.68;;;;;;;33.88;36.49;100931.66;5043021;28;20028;-92
2023/07/19 08:58:50;;;;;;;18.48;7.40;;;;;;;33.95;36.25;100931.59;5031142;28;20041;-92
2023/07/19 09:01:16;;;;;;;11.75;7.18;;;;;;;34.07;35.95;100929.00;5043131;28;20386;-90
2023/07/19 09:03:42;;;;;;;9.63;6.97;;;;;;;34.12;35.80;100934.50;5039481;28;20028;-93
2023/07/19 09:06:07;;;;;;;14.18;7.47;;;;;;;34.14;36.63;100925.22;5074332;28;20029;-92
2023/07/19 09:08:40;;;;;;;11.85;6.85;;;;;;;34.24;36.88;100922.00;5055256;28;20043;-91
2023/07/19 09:11:05;;;;;;;12.48;6.60;;;;;;;34.47;36.49;100910.59;5058858;28;20076;-88
2023/07/19 09:13:32;;;;;;;11.32;7.43;;;;;;;34.55;35.77;100906.78;5075483;28;20166;-89
2023/07/19 09:15:58;;;;;;;11.70;8.02;;;;;;;34.84;35.29;100911.34;5073323;28;20115;-89
2023/07/19 09:18:28;;;;;;;11.65;7.85;;;;;;;34.90;34.45;100906.94;5058236;28;20058;-91
2023/07/19 09:20:57;;;;;;;10.70;6.80;;;;;;;35.08;34.53;100888.91;5078389;28;20033;-91
2023/07/19 09:23:23;;;;;;;11.70;6.18;;;;;;;35.18;33.36;100899.09;5066095;28;20192;-86
2023/07/19 09:25:52;;;;;;;13.60;6.38;;;;;;;35.36;33.46;100896.31;5076727;28;20024;-87
2023/07/19 09:28:22;;;;;;;8.48;5.43;;;;;;;35.66;30.16;100895.44;5075961;28;20063;-92
2023/07/19 09:31:04;;;;;;;8.13;5.43;;;;;;;35.66;30.04;100881.16;5087549;28;20034;-91
2023/07/19 09:33:30;;;;;;;9.38;6.28;;;;;;;35.66;31.05;100891.94;5049366;28;20028;-87
2023/07/19 09:35:56;;;;;;;8.95;5.38;;;;;;;35.74;31.88;100883.50;5070284;28;20039;-85
2023/07/19 09:38:22;;;;;;;11.90;6.28;;;;;;;35.86;31.82;100876.22;5057017;28;20566;-88
2023/07/19 09:40:51;;;;;;;11.63;7.07;;;;;;;35.90;31.44;100880.13;5061145;28;20050;-93
2023/07/19 09:43:17;;;;;;;11.77;6.07;;;;;;;36.20;30.30;100874.56;5044984;28;20035;-91
2023/07/19 09:45:43;;;;;;;8.70;5.22;;;;;;;36.21;29.76;100870.81;5043348;28;20533;-92
2023/07/19 09:48:08;;;;;;;9.10;5.75;;;;;;;36.07;29.80;100859.47;5061016;28;20046;-90
2023/07/19 09:50:35;;;;;;;8.40;5.60;;;;;;;36.34;28.64;100877.81;5094834;28;20024;-93
2023/07/19 09:53:01;;;;;;;7.22;5.45;;;;;;;36.03;29.75;100877.19;5049138;28;20489;-89
2023/07/19 09:55:26;;;;;;;10.43;6.70;;;;;;;36.03;30.41;100857.50;5040832;28;20051;-91
2023/07/19 09:57:52;;;;;;;8.98;5.82;;;;;;;36.34;29.28;100865.16;5039683;28;20032;-90
2023/07/19 10:00:17;;;;;;;9.77;6.65;;;;;;;36.26;29.66;100862.00;5040368;28;20025;-92
2023/07/19 10:02:43;;;;;;;11.85;7.03;;;;;;;36.12;30.67;100864.16;5041316;28;20507;-91
2023/07/19 10:05:09;;;;;;;9.55;6.28;;;;;;;36.42;30.82;100862.13;5060133;28;20024;-92
2023/07/19 10:07:34;;;;;;;11.40;6.97;;;;;;;36.40;30.60;100863.41;5046799;28;20029;-93
2023/07/19 10:10:03;;;;;;;10.10;6.20;;;;;;;36.54;30.47;100864.75;5047783;28;20028;-92
2023/07/19 10:12:28;;;;;;;8.98;6.00;;;;;;;36.72;30.67;100850.25;5039497;28;20081;-90
2023/07/19 10:15:05;;;;;;;11.10;6.93;;;;;;;36.90;30.52;100844.69;5018489;28;20053;-91
2023/07/19 10:17:40;;;;;;;10.15;6.68;;;;;;;37.00;30.79;100847.56;5053374;28;20470;-92
2023/07/19 10:20:13;;;;;;;12.63;6.78;;;;;;;36.91;30.61;100848.19;5046523;28;20024;-89
2023/07/19 10:23:06;;;;;;;10.48;7.13;;;;;;;36.83;30.55;100851.28;5054845;28;20032;-85
2023/07/19 10:25:34;;;;;;;10.40;6.88;;;;;;;36.92;30.05;100847.94;5065381;28;20056;-95
2023/07/19 10:28:04;;;;;;;12.68;6.95;;;;;;;36.90;30.25;100841.19;5055182;28;20024;-92
2023/07/19 10:30:49;;;;;;;9.77;6.30;;;;;;;36.92;30.03;100841.75;5036544;28;20040;-91
2023/07/19 10:33:19;;;;;;;10.10;7.00;;;;;;;36.80;29.49;100835.59;5037407;28;20028;-90
2023/07/19 10:35:45;;;;;;;10.52;6.72;;;;;;;36.51;30.30;100832.91;5038483;28;20025;-86
2023/07/19 10:38:24;;;;;;;16.63;6.97;;;;;;;36.71;31.19;100827.06;5054778;28;20060;-90
2023/07/19 10:41:05;;;;;;;10.77;6.95;;;;;;;36.90;30.60;100828.50;5070556;28;20024;-85
2023/07/19 10:43:32;;;;;;;9.55;6.75;;;;;;;37.15;30.52;100822.69;5052172;28;20074;-91
2023/07/19 10:45:59;;;;;;;15.13;7.10;;;;;;;37.22;29.30;100828.75;5035618;28;20029;-87
2023/07/19 10:48:28;;;;;;;11.48;6.88;;;;;;;36.95;29.85;100819.69;5031581;28;20048;-88
2023/07/19 10:51:00;;;;;;;11.43;7.57;;;;;;;37.04;31.13;100808.25;5035080;28;20021;-89
2023/07/19 10:53:25;;;;;;;10.68;7.45;;;;;;;37.30;29.80;100824.84;5038870;28;20032;-88
2023/07/19 10:55:54;;;;;;;11.65;7.47;;;;;;;37.37;29.72;100801.22;5054066;28;20503;-89
2023/07/19 10:58:21;;;;;;;10.23;7.20;;;;;;;37.49;30.59;100807.31;5053410;28;20032;-88
2023/07/19 11:00:47;;;;;;;13.32;7.68;;;;;;;37.35;29.73;100816.00;5036583;28;20059;-88
2023/07/19 11:03:16;;;;;;;12.25;7.78;;;;;;;37.45;29.75;100813.47;5054804;28;20490;-94
2023/07/19 11:05:47;;;;;;;10.35;7.30;;;;;;;37.64;29.99;100814.00;5072480;28;20093;-90
2023/07/19 11:08:22;;;;;;;11.13;7.53;;;;;;;37.22;29.24;100817.16;5053354;28;20120;-87
2023/07/19 11:10:49;;;;;;;13.02;7.80;;;;;;;37.52;29.35;100806.00;5070709;28;20075;-92
2023/07/19 11:13:14;;;;;;;16.30;7.45;;;;;;;37.52;29.49;100806.00;5057539;28;20052;-92
2023/07/19 11:15:42;;;;;;;14.55;8.93;;;;;;;37.44;30.04;100803.72;5058607;28;20516;-89
2023/07/19 11:18:08;;;;;;;11.98;8.43;;;;;;;37.65;27.57;100811.03;5040674;28;20020;-89